ADDS METAR Data INFO
IDs: Format: Raw Decoded Include TAF

Data at: 0857 UTC 19 Jun 2018

KWMC 190756Z AUTO 29005KT 10SM FEW060 12/07 A3014 RMK AO2 SLP174 T01220067 402280072
KWMC 190656Z AUTO 29005KT 10SM BKN060 12/07 A3014 RMK AO2 SLP179 T01220067
KWMC 190556Z AUTO 26008KT 10SM SCT055 13/07 A3013 RMK AO2 SLP176 T01330067 10228 20122 50011
KWMC 190456Z AUTO 00000KT 10SM BKN050 14/07 A3014 RMK AO2 SLP178 T01390072
KWMC 190356Z AUTO 36009KT 10SM SCT075 BKN110 17/07 A3011 RMK AO2 SLP166 T01670072
KWMC 190256Z AUTO 35007KT 10SM BKN100 18/06 A3009 RMK AO2 SLP159 T01830061 52009
KWMC 190156Z AUTO 32010KT 10SM BKN100 21/06 A3008 RMK AO2 SLP155 T02060056
KWMC 190056Z AUTO 31015G18KT 10SM BKN065 OVC075 21/06 A3007 RMK AO2 SLP154 T02110056
KWMC 182356Z AUTO 28011KT 10SM BKN065 OVC080 20/06 A3006 RMK AO2 SLP152 T02000056 10217 20167 58001
KWMC 182256Z AUTO 26010KT 10SM OVC080 20/06 A3006 RMK AO2 SLP155 T02000061
KWMC 182156Z AUTO VRB06KT 10SM OVC060 19/06 A3007 RMK AO2 SLP157 T01890061
KWMC 182056Z AUTO 26010KT 10SM OVC060 18/06 A3007 RMK AO2 SLP156 T01830056 55001
KWMC 181956Z AUTO 27010G17KT 10SM FEW050 BKN065 20/06 A3006 RMK AO2 SLP149 T02000061
KWMC 181856Z AUTO 26012G19KT 10SM OVC055 18/06 A3007 RMK AO2 SLP154 T01780061
KWMC 181756Z AUTO 26012G18KT 10SM OVC049 16/06 A3007 RMK AO2 SLP158 60000 T01610061 10172 20083 53007
KWMC 181656Z AUTO 22009KT 10SM SCT045 BKN050 OVC085 16/06 A3006 RMK AO2 SLP155 T01560061
KWMC 181556Z AUTO 23009KT 10SM FEW041 OVC080 16/06 A3005 RMK AO2 SLP152 T01560061
KWMC 181456Z AUTO 14006KT 10SM BKN050 OVC085 13/08 A3005 RMK AO2 SLP149 60000 T01330083 51016
KWMC 181356Z AUTO VRB03KT 10SM SCT045 BKN060 OVC080 12/08 A3004 RMK AO2 SLP148 T01170078
KWMC 181256Z AUTO 00000KT 10SM SCT041 BKN048 OVC090 09/08 A3002 RMK AO2 RAB11E29 SLP142 P0000 T00940078
KWMC 181156Z AUTO VRB04KT 10SM BKN049 OVC075 09/07 A2999 RMK AO2 SLP137 60002 70016 T00890067 10106 20072 53003
KWMC 181056Z AUTO 15003KT 10SM SCT050 08/06 A2999 RMK AO2 SLP137 T00780061
KWMC 180956Z AUTO 14003KT 10SM SCT041 SCT050 BKN065 09/07 A2998 RMK AO2 SLP128 T00890067
KWMC 180856Z AUTO 16004KT 10SM FEW041 BKN075 09/08 A2998 RMK AO2 SLP135 60002 T00940083 51001
KWMC 180756Z AUTO 20003KT 10SM BKN042 OVC050 11/09 A2998 RMK AO2 SLP135 T01060089 401940089
KWMC 180656Z AUTO 00000KT 10SM BKN042 OVC075 11/09 A2998 RMK AO2 RAE33 SLP125 P0002 T01060089
KWMC 180556Z AUTO 23006KT 6SM -RA BR SCT039 OVC055 11/08 A2998 RMK AO2 RAB44 SLP127 P0000 60000 T01060083 10144 20089 51018
KWMC 180456Z AUTO 24003KT 10SM FEW039 OVC060 11/07 A2997 RMK AO2 SLP124 T01060072
KWMC 180356Z AUTO 00000KT 10SM CLR 10/06 A2993 RMK AO2 SLP114 T01000061
KWMC 180256Z AUTO 00000KT 10SM CLR 14/07 A2992 RMK AO2 RAB03E30 SLP105 P0000 60000 T01390072 53004
KWMC 180156Z AUTO 00000KT 10SM FEW060 FEW075 SCT110 14/07 A2991 RMK AO2 SLP105 T01390067
KWMC 180056Z AUTO 02004KT 10SM FEW110 14/06 A2991 RMK AO2 SLP101 T01440061
KWMC 172356Z AUTO 04004KT 10SM SCT055 SCT070 BKN090 13/08 A2991 RMK AO2 WSHFT 2256 LTG DSNT E RAE41 SLP102 P0000 60014 T01330078 10194 20100 53017
KWMC 172316Z AUTO 34011KT 10SM -RA FEW043 BKN060 OVC080 12/08 A2990 RMK AO2 WSHFT 2256 P0000 T01220083
KWMC 172256Z AUTO 29010KT 10SM -RA BKN055 OVC080 13/08 A2990 RMK AO2 PK WND 25027/2236 WSHFT 2209 LTG DSNT SE AND S RAB42 SLP101 P0000 T01280078
KWMC 172229Z AUTO 23018G25KT 10SM FEW044 SCT050 OVC070 13/07 A2987 RMK AO2 WSHFT 2209 T01330072
KWMC 172156Z AUTO 16010KT 10SM CLR 17/09 A2985 RMK AO2 SLP076 T01720089